Strona główna
METAR-TAF:

METAR-TAF

Lotnisko :

Coningsby, Anglia

Szerokość geograficzna: 53-05N, Długość geograficzna: 000-10W, wysokość: 7 m

Aktualna obserwacja pogody

Raport powstał 1 godzina i 3 minut temu, godzina 21:50 UTC
Wiatr 8 kt od południowo-południowy wschód
Temperatura 8°C
Wilgotność 71%
Ciśnienie 1019 hPa
Widzialność 10 km lub więcej
Brak chmur poniżej 1500 m i brak chmur cumulonimbus

METAR: EGXC 042150Z 16008KT CAVOK 08/03 Q1019 RMK BLU

czas: 23:53 (22:53 UTC)

Prognoza

Raport powstał 3 godziny i 23 minut temu, godzina 19:30 UTC
Prognoza ważna od 04 godzina 21 UTC do 05 godzina 15 UTC
Wiatr 8 kt od południowo-południowy wschód
Widzialność 10 km lub więcej
Brak chmur poniżej 1500 m i brak chmur cumulonimbus
Stopniowe zmiany
od 05 godzina 08 UTC do 05 godzina 10 UTC
Wiatr 18 kt od południowo-południowy wschód w porywach dochodzący do 28 kt

TAF: EGXC 041930Z 0421/0515 15008KT CAVOK BECMG 0508/0510 16018G28KT

Obserwacja i prognoza pogody dla ponad 4000 lotnisk (raport METAR i TAF).

Dostępne stacje oznaczono żółtymi i czerwonymi punktami na mapie.

Najedź kursorem aby zobaczyć nazwę stacji.

Kliknij aby zobaczyć obserwacje i prognozy pogody.

Aby zmienić mapę: kliknij na zielony przycisk z czarnym krzyżykiem, aby powiększyć; na zielony przycisk z myślnikiem, aby pomniejszyć; na zielone strzałki, aby przejść do map sąsiednich.


METAR-TAF: